createdAt,value
2019-02-21T00:01:21.390Z,101987.94
2019-02-21T00:03:50.653Z,101985.00
2019-02-21T00:06:19.933Z,101989.24
2019-02-21T00:08:49.267Z,101987.88
2019-02-21T00:11:18.635Z,101981.55
2019-02-21T00:13:47.939Z,101988.71
2019-02-21T00:16:17.267Z,101979.34
2019-02-21T00:18:46.552Z,101983.68
2019-02-21T00:21:15.795Z,101978.13
2019-02-21T00:23:45.100Z,101983.91
2019-02-21T00:26:14.458Z,101976.98
2019-02-21T00:28:43.781Z,101977.28
2019-02-21T00:31:13.171Z,101979.42
2019-02-21T00:33:42.550Z,101976.22
2019-02-21T00:36:11.880Z,101974.41
2019-02-21T00:38:41.129Z,101975.34
2019-02-21T00:41:10.420Z,101971.48
2019-02-21T00:43:39.686Z,101966.31
2019-02-21T00:46:08.968Z,101970.27
2019-02-21T00:48:38.332Z,101962.08
2019-02-21T00:51:07.735Z,101959.41
2019-02-21T00:53:37.152Z,101955.10
2019-02-21T00:56:06.395Z,101951.30
2019-02-21T00:58:35.695Z,101950.56
2019-02-21T01:01:05.029Z,101948.19
2019-02-21T01:03:34.359Z,101949.65
2019-02-21T01:06:03.697Z,101945.17
2019-02-21T01:08:32.941Z,101939.59
2019-02-21T01:11:02.256Z,101937.59
2019-02-21T01:13:31.496Z,101938.42
2019-02-21T01:16:00.819Z,101928.27
2019-02-21T01:18:30.193Z,101925.83
2019-02-21T01:20:59.496Z,101921.97
2019-02-21T01:23:28.871Z,101920.89
2019-02-21T01:25:58.250Z,101919.14
2019-02-21T01:28:27.542Z,101911.27
2019-02-21T01:30:57.356Z,101916.95
2019-02-21T01:33:26.849Z,101903.06
2019-02-21T01:35:56.219Z,101914.54
2019-02-21T01:38:25.534Z,101904.58
2019-02-21T01:40:54.914Z,101908.44
2019-02-21T01:43:24.244Z,101903.51
2019-02-21T01:45:53.523Z,101897.88
2019-02-21T01:48:22.846Z,101898.66
2019-02-21T01:50:52.178Z,101894.71
2019-02-21T01:53:21.536Z,101893.64
2019-02-21T01:55:50.957Z,101890.61
2019-02-21T01:58:20.336Z,101889.98
2019-02-21T02:00:49.676Z,101891.59
2019-02-21T02:03:19.095Z,101886.12
2019-02-21T02:05:48.396Z,101886.18
2019-02-21T02:08:17.657Z,101877.98
2019-02-21T02:10:47.170Z,101881.34
2019-02-21T02:13:24.005Z,101874.80
2019-02-21T02:15:47.526Z,101878.45
2019-02-21T02:18:16.840Z,101877.92
2019-02-21T02:20:46.153Z,101876.70
2019-02-21T02:23:15.453Z,101871.53
2019-02-21T02:25:44.808Z,101872.75
2019-02-21T02:28:14.138Z,101864.78
2019-02-21T02:30:43.431Z,101862.88
2019-02-21T02:33:12.784Z,101860.89
2019-02-21T02:35:42.132Z,101860.06
2019-02-21T02:38:11.379Z,101861.05
2019-02-21T02:40:40.676Z,101860.36
2019-02-21T02:43:09.911Z,101853.47
2019-02-21T02:45:39.182Z,101850.34
2019-02-21T02:48:08.533Z,101848.15
2019-02-21T02:50:37.917Z,101847.91
2019-02-21T02:53:07.237Z,101841.23
2019-02-21T02:55:36.501Z,101846.11
2019-02-21T02:58:06.669Z,101844.59
2019-02-21T03:00:36.033Z,101845.95
2019-02-21T03:03:05.353Z,101844.11
2019-02-21T03:05:34.709Z,101847.70
2019-02-21T03:08:04.052Z,101842.23
2019-02-21T03:10:33.443Z,101840.54
2019-02-21T03:13:02.784Z,101839.84
2019-02-21T03:17:54.958Z,101840.47
2019-02-21T03:20:24.256Z,101845.17
2019-02-21T03:22:53.558Z,101845.71
2019-02-21T03:25:22.866Z,101848.00
2019-02-21T03:27:52.189Z,101851.03
2019-02-21T03:30:21.555Z,101851.70
2019-02-21T03:32:50.807Z,101855.75
2019-02-21T03:35:20.163Z,101849.66
2019-02-21T03:37:49.511Z,101850.34
2019-02-21T03:40:18.781Z,101845.41
2019-02-21T03:42:48.077Z,101849.42
2019-02-21T03:45:17.397Z,101851.57
2019-02-21T03:47:46.681Z,101849.28
2019-02-21T03:50:15.970Z,101848.98
2019-02-21T03:52:45.325Z,101848.75
2019-02-21T03:55:14.663Z,101852.77
2019-02-21T03:57:44.036Z,101846.25
2019-02-21T04:00:13.570Z,101845.72
2019-02-21T04:02:42.987Z,101846.76
2019-02-21T04:05:12.267Z,101838.34
2019-02-21T04:07:41.563Z,101842.75
2019-02-21T04:10:10.933Z,101841.08
2019-02-21T04:12:40.298Z,101833.42
2019-02-21T04:15:10.997Z,101835.61
2019-02-21T04:17:40.367Z,101829.77
2019-02-21T04:20:09.645Z,101823.17
2019-02-21T04:22:38.934Z,101822.84
2019-02-21T04:25:08.271Z,101824.21
2019-02-21T04:27:37.544Z,101819.58
2019-02-21T04:30:06.938Z,101822.64
2019-02-21T04:32:36.246Z,101826.26
2019-02-21T04:35:05.676Z,101822.94
2019-02-21T04:37:35.005Z,101817.38
2019-02-21T04:40:04.603Z,101820.11
2019-02-21T04:42:33.897Z,101818.90
2019-02-21T04:45:03.222Z,101814.05
2019-02-21T04:47:32.537Z,101814.88
2019-02-21T04:50:01.853Z,101811.61
2019-02-21T04:52:31.171Z,101812.38
2019-02-21T04:55:00.533Z,101807.83
2019-02-21T04:57:29.803Z,101807.59
2019-02-21T04:59:59.160Z,101803.48
2019-02-21T05:02:29.733Z,101805.77
2019-02-21T05:04:59.107Z,101801.88
2019-02-21T05:07:28.486Z,101793.23
2019-02-21T05:09:58.532Z,101792.78
2019-02-21T05:12:27.964Z,101790.72
2019-02-21T05:14:57.368Z,101798.92
2019-02-21T05:17:26.662Z,101798.17
2019-02-21T05:19:55.946Z,101801.12
2019-02-21T05:22:25.237Z,101800.38
2019-02-21T05:24:54.545Z,101798.09
2019-02-21T05:27:27.957Z,101793.20
2019-02-21T05:29:57.211Z,101795.78
2019-02-21T05:32:42.680Z,101790.31
2019-02-21T05:35:31.469Z,101782.89
2019-02-21T05:38:19.715Z,101791.18
2019-02-21T05:41:06.262Z,101792.14
2019-02-21T05:44:00.698Z,101792.84
2019-02-21T05:46:47.387Z,101792.22
2019-02-21T05:49:47.580Z,101790.11
2019-02-21T05:52:30.386Z,101788.58
2019-02-21T05:55:04.524Z,101790.78
2019-02-21T05:57:42.658Z,101786.37
2019-02-21T06:00:46.210Z,101798.69
2019-02-21T06:03:43.269Z,101804.37
2019-02-21T06:06:31.529Z,101804.77
2019-02-21T06:09:24.279Z,101798.68
2019-02-21T06:12:06.102Z,101798.47
2019-02-21T06:14:42.958Z,101799.55
2019-02-21T06:17:34.192Z,101796.27
2019-02-21T06:20:25.658Z,101794.59
2019-02-21T06:23:06.480Z,101788.73
2019-02-21T06:25:50.858Z,101793.80
2019-02-21T06:28:25.884Z,101789.95
2019-02-21T06:31:07.933Z,101793.14
2019-02-21T06:33:37.268Z,101795.63
2019-02-21T06:36:06.560Z,101790.94
2019-02-21T06:38:35.854Z,101788.45
2019-02-21T06:41:05.213Z,101792.55
2019-02-21T06:43:34.748Z,101792.14
2019-02-21T06:46:04.052Z,101790.33
2019-02-21T06:48:34.933Z,101787.72
2019-02-21T06:51:04.291Z,101787.48
2019-02-21T06:53:33.593Z,101778.98
2019-02-21T06:56:02.898Z,101780.51
2019-02-21T06:58:32.258Z,101784.61
2019-02-21T07:01:01.948Z,101785.61
2019-02-21T07:03:31.248Z,101789.71
2019-02-21T07:06:00.572Z,101785.28
2019-02-21T07:08:29.853Z,101780.59
2019-02-21T07:11:06.268Z,101785.61
2019-02-21T07:13:30.276Z,101779.44
2019-02-21T07:15:59.639Z,101781.92
2019-02-21T07:18:29.122Z,101786.86
2019-02-21T07:20:58.429Z,101782.55
2019-02-21T07:23:28.207Z,101778.28
2019-02-21T07:26:00.960Z,101779.94
2019-02-21T07:28:30.277Z,101785.17
2019-02-21T07:30:59.593Z,101786.61
2019-02-21T07:33:29.139Z,101786.66
2019-02-21T07:35:58.405Z,101780.06
2019-02-21T07:38:27.694Z,101775.50
2019-02-21T07:40:57.032Z,101778.83
2019-02-21T07:43:26.340Z,101772.77
2019-02-21T07:45:55.931Z,101776.33
2019-02-21T07:48:25.342Z,101776.41
2019-02-21T07:50:54.610Z,101779.98
2019-02-21T07:53:23.917Z,101776.75
2019-02-21T07:55:55.746Z,101777.37
2019-02-21T07:58:24.296Z,101777.73
2019-02-21T08:00:54.171Z,101784.58
2019-02-21T08:03:30.320Z,101784.78
2019-02-21T08:05:54.486Z,101782.58
2019-02-21T08:08:23.822Z,101781.22
2019-02-21T08:10:53.144Z,101780.59
2019-02-21T08:13:22.478Z,101780.67
2019-02-21T08:15:51.746Z,101788.81
2019-02-21T08:18:21.040Z,101788.93
2019-02-21T08:20:50.391Z,101788.34
2019-02-21T08:23:19.717Z,101795.44
2019-02-21T08:25:49.002Z,101793.20
2019-02-21T08:28:18.306Z,101806.14
2019-02-21T08:30:47.599Z,101802.86
2019-02-21T08:33:27.990Z,101812.73
2019-02-21T08:35:57.996Z,101811.16
2019-02-21T08:38:27.405Z,101825.42
2019-02-21T08:40:57.255Z,101820.78
2019-02-21T08:43:26.625Z,101820.56
2019-02-21T08:45:57.555Z,101829.91
2019-02-21T08:48:27.229Z,101831.35
2019-02-21T08:50:56.541Z,101828.37
2019-02-21T08:53:28.018Z,101830.11
2019-02-21T08:55:56.886Z,101835.16
2019-02-21T08:58:26.171Z,101838.23
2019-02-21T09:00:55.475Z,101840.50
2019-02-21T09:03:24.853Z,101846.34
2019-02-21T09:05:54.171Z,101843.91
2019-02-21T09:08:33.035Z,101844.79
2019-02-21T09:10:54.453Z,101842.22
2019-02-21T09:13:24.037Z,101846.78
2019-02-21T09:15:55.836Z,101844.91
2019-02-21T09:18:24.405Z,101846.53
2019-02-21T09:20:53.745Z,101846.45
2019-02-21T09:23:23.061Z,101858.64
2019-02-21T09:25:52.396Z,101849.31
2019-02-21T09:28:21.715Z,101862.50
2019-02-21T09:30:51.028Z,101862.60
2019-02-21T09:33:21.337Z,101860.02
2019-02-21T09:35:51.010Z,101875.16
2019-02-21T09:38:20.324Z,101876.92
2019-02-21T09:40:49.645Z,101876.63
2019-02-21T09:43:18.928Z,101875.57
2019-02-21T09:45:48.262Z,101871.00
2019-02-21T09:48:17.652Z,101877.55
2019-02-21T09:50:47.568Z,101873.89
2019-02-21T09:53:16.850Z,101871.15
2019-02-21T09:55:46.195Z,101874.39
2019-02-21T09:58:15.555Z,101877.30
2019-02-21T10:00:44.806Z,101882.29
2019-02-21T10:03:14.146Z,101876.72
2019-02-21T10:05:43.519Z,101878.63
2019-02-21T10:08:12.858Z,101876.72
2019-02-21T10:10:42.116Z,101872.19
2019-02-21T10:13:13.265Z,101867.94
2019-02-21T10:15:42.989Z,101861.11
2019-02-21T10:18:12.334Z,101863.55
2019-02-21T10:20:41.595Z,101867.34
2019-02-21T10:23:10.971Z,101863.24
2019-02-21T10:25:40.304Z,101867.52
2019-02-21T10:28:09.592Z,101867.81
2019-02-21T10:30:38.928Z,101873.87
2019-02-21T10:33:08.199Z,101877.77
2019-02-21T10:35:37.458Z,101883.06
2019-02-21T10:38:06.774Z,101882.45
2019-02-21T10:40:36.042Z,101891.42
2019-02-21T10:43:05.405Z,101887.61
2019-02-21T10:45:34.780Z,101887.81
2019-02-21T10:48:04.275Z,101892.88
2019-02-21T10:50:33.628Z,101886.30
2019-02-21T10:53:03.103Z,101897.66
2019-02-21T10:55:32.416Z,101886.88
2019-02-21T10:58:01.807Z,101890.05
2019-02-21T11:00:31.204Z,101886.76
2019-02-21T11:03:00.449Z,101885.89
2019-02-21T11:05:29.757Z,101881.16
2019-02-21T11:07:59.103Z,101877.04
2019-02-21T11:10:28.743Z,101872.17
2019-02-21T11:12:58.066Z,101876.67
2019-02-21T11:15:27.500Z,101886.63
2019-02-21T11:17:56.897Z,101880.16
2019-02-21T11:20:26.154Z,101874.14
2019-02-21T11:22:55.416Z,101877.61
2019-02-21T11:25:24.703Z,101874.74
2019-02-21T11:27:54.071Z,101876.64
2019-02-21T11:30:23.407Z,101878.38
2019-02-21T11:32:52.666Z,101879.64
2019-02-21T11:35:21.962Z,101876.68
2019-02-21T11:37:51.291Z,101875.88
2019-02-21T11:40:20.584Z,101869.58
2019-02-21T11:42:49.869Z,101865.19
2019-02-21T11:45:19.718Z,101865.48
2019-02-21T11:47:49.024Z,101865.62
2019-02-21T11:50:18.309Z,101862.59
2019-02-21T11:52:47.638Z,101867.63
2019-02-21T11:55:21.612Z,101867.78
2019-02-21T11:57:50.927Z,101868.91
2019-02-21T12:00:24.684Z,101880.64
2019-02-21T12:02:54.061Z,101878.73
2019-02-21T12:05:30.530Z,101883.73
2019-02-21T12:07:54.626Z,101887.00
2019-02-21T12:10:23.995Z,101888.09
2019-02-21T12:12:53.548Z,101892.34
2019-02-21T12:15:22.875Z,101889.88
2019-02-21T12:17:52.193Z,101890.30
2019-02-21T12:20:21.470Z,101893.80
2019-02-21T12:22:50.756Z,101892.17
2019-02-21T12:25:20.180Z,101899.42
2019-02-21T12:27:49.515Z,101893.92
2019-02-21T12:30:19.182Z,101901.52
2019-02-21T12:32:48.471Z,101905.39
2019-02-21T12:35:28.826Z,101910.66
2019-02-21T12:37:48.957Z,101906.75
2019-02-21T12:40:18.974Z,101906.27
2019-02-21T12:42:48.232Z,101914.05
2019-02-21T12:45:18.942Z,101913.11
2019-02-21T12:47:52.852Z,101915.71
2019-02-21T12:50:19.258Z,101913.57
2019-02-21T12:52:48.583Z,101917.19
2019-02-21T12:55:27.251Z,101922.35
2019-02-21T12:57:49.034Z,101921.94
2019-02-21T13:00:18.984Z,101935.06
2019-02-21T13:02:48.306Z,101931.61
2019-02-21T13:05:17.781Z,101929.18
2019-02-21T13:07:47.145Z,101940.44
2019-02-21T13:10:17.639Z,101940.84
2019-02-21T13:12:46.935Z,101949.76
2019-02-21T13:15:16.223Z,101954.38
2019-02-21T13:17:45.672Z,101950.59
2019-02-21T13:20:15.261Z,101958.66
2019-02-21T13:22:44.679Z,101954.08
2019-02-21T13:25:14.212Z,101959.72
2019-02-21T13:27:43.479Z,101958.34
2019-02-21T13:30:14.581Z,101959.64
2019-02-21T13:32:43.891Z,101962.13
2019-02-21T13:35:13.242Z,101963.50
2019-02-21T13:37:42.626Z,101972.28
2019-02-21T13:40:13.158Z,101968.47
2019-02-21T13:42:42.487Z,101967.82
2019-02-21T13:45:12.864Z,101976.95
2019-02-21T13:47:42.151Z,101985.23
2019-02-21T13:50:13.551Z,101983.45
2019-02-21T13:52:42.833Z,101983.69
2019-02-21T13:55:12.247Z,101991.02
2019-02-21T13:57:41.560Z,101999.08
2019-02-21T14:00:13.836Z,102003.09
2019-02-21T14:02:43.224Z,102002.04
2019-02-21T14:05:12.589Z,102002.87
2019-02-21T14:07:41.873Z,102002.23
2019-02-21T14:10:11.704Z,101996.89
2019-02-21T14:12:41.050Z,101997.53
2019-02-21T14:15:12.874Z,101998.25
2019-02-21T14:17:42.232Z,102003.09
2019-02-21T14:20:11.643Z,102003.28
2019-02-21T14:22:40.927Z,102015.55
2019-02-21T14:25:10.242Z,102014.81
2019-02-21T14:27:39.538Z,102014.93
2019-02-21T14:30:11.246Z,102021.02
2019-02-21T14:32:40.543Z,102021.84
2019-02-21T14:35:10.867Z,102025.39
2019-02-21T14:37:40.180Z,102031.28
2019-02-21T14:40:10.486Z,102023.95
2019-02-21T14:42:39.974Z,102027.94
2019-02-21T14:45:12.606Z,102035.88
2019-02-21T14:47:41.989Z,102023.83
2019-02-21T14:50:11.545Z,102021.62
2019-02-21T14:52:40.839Z,102038.70
2019-02-21T14:55:10.966Z,102042.91
2019-02-21T14:57:41.322Z,102044.69
2019-02-21T15:00:16.838Z,102038.20
2019-02-21T15:02:46.164Z,102035.77
2019-02-21T15:05:15.446Z,102043.94
2019-02-21T15:07:44.763Z,102053.38
2019-02-21T15:10:14.697Z,102050.44
2019-02-21T15:12:44.072Z,102061.56
2019-02-21T15:15:14.626Z,102070.47
2019-02-21T15:17:43.978Z,102067.52
2019-02-21T15:20:14.147Z,102087.41
2019-02-21T15:22:43.436Z,102073.89
2019-02-21T15:25:12.714Z,102077.85
2019-02-21T15:27:41.993Z,102080.98
2019-02-21T15:30:13.619Z,102082.69
2019-02-21T15:32:44.744Z,102078.25
2019-02-21T15:35:14.103Z,102079.41
2019-02-21T15:37:45.077Z,102091.44
2019-02-21T15:40:14.589Z,102096.27
2019-02-21T15:42:43.924Z,102097.84
2019-02-21T15:45:22.988Z,102099.73
2019-02-21T15:47:46.230Z,102106.81
2019-02-21T15:50:15.498Z,102106.73
2019-02-21T15:52:44.989Z,102113.72
2019-02-21T15:55:14.994Z,102120.44
2019-02-21T15:57:44.303Z,102121.80
2019-02-21T16:00:15.457Z,102121.70
2019-02-21T16:02:44.880Z,102121.97
2019-02-21T16:05:14.312Z,102121.97
2019-02-21T16:07:43.648Z,102114.45
2019-02-21T16:10:15.054Z,102120.39
2019-02-21T16:12:45.053Z,102129.43
2019-02-21T16:15:16.377Z,102123.89
2019-02-21T16:17:45.778Z,102138.22
2019-02-21T16:20:15.335Z,102145.86
2019-02-21T16:22:44.770Z,102145.67
2019-02-21T16:25:19.322Z,102145.42
2019-02-21T16:27:48.611Z,102164.30
2019-02-21T16:30:17.876Z,102154.86
2019-02-21T16:32:47.182Z,102162.10
2019-02-21T16:35:16.508Z,102174.01
2019-02-21T16:37:45.807Z,102183.58
2019-02-21T16:40:15.312Z,102179.05
2019-02-21T16:42:44.695Z,102198.41
2019-02-21T16:45:14.662Z,102204.88
2019-02-21T16:47:43.985Z,102213.05
2019-02-21T16:50:13.809Z,102200.78
2019-02-21T16:52:43.098Z,102203.77
2019-02-21T16:55:14.700Z,102202.31
2019-02-21T16:57:43.988Z,102201.09
2019-02-21T17:00:14.334Z,102220.80
2019-02-21T17:02:43.648Z,102215.59
2019-02-21T17:05:13.963Z,102226.14
2019-02-21T17:07:43.345Z,102210.64
2019-02-21T17:10:14.472Z,102216.53
2019-02-21T17:12:43.721Z,102219.34
2019-02-21T17:15:13.353Z,102226.27
2019-02-21T17:17:42.743Z,102241.77
2019-02-21T17:20:13.554Z,102252.42
2019-02-21T17:22:42.805Z,102263.64
2019-02-21T17:25:12.951Z,102271.39
2019-02-21T17:27:42.423Z,102275.97
2019-02-21T17:30:14.672Z,102280.50
2019-02-21T17:32:43.961Z,102287.83
2019-02-21T17:35:13.533Z,102289.25
2019-02-21T17:37:42.881Z,102306.02
2019-02-21T17:40:14.684Z,102307.92
2019-02-21T17:42:43.961Z,102318.81
2019-02-21T17:45:13.580Z,102323.67
2019-02-21T17:47:42.896Z,102323.59
2019-02-21T17:50:12.678Z,102333.69
2019-02-21T17:52:41.975Z,102338.14
2019-02-21T17:55:11.491Z,102347.78
2019-02-21T17:57:40.793Z,102355.77
2019-02-21T18:00:13.430Z,102355.37
2019-02-21T18:02:42.764Z,102361.41
2019-02-21T18:05:12.055Z,102358.23
2019-02-21T18:07:41.363Z,102358.03
2019-02-21T18:10:12.476Z,102366.78
2019-02-21T18:12:41.760Z,102373.89
2019-02-21T18:15:11.324Z,102387.56
2019-02-21T18:17:40.588Z,102398.97
2019-02-21T18:20:10.896Z,102401.43
2019-02-21T18:22:40.269Z,102410.11
2019-02-21T18:25:12.758Z,102406.09
2019-02-21T18:27:42.071Z,102406.41
2019-02-21T18:30:12.966Z,102417.20
2019-02-21T18:32:42.253Z,102423.37
2019-02-21T18:35:11.984Z,102429.06
2019-02-21T18:37:47.386Z,102440.84
2019-02-21T18:40:17.361Z,102433.42
2019-02-21T18:42:45.034Z,102433.26
2019-02-21T18:45:14.452Z,102439.06
2019-02-21T18:47:43.798Z,102441.84
2019-02-21T18:50:13.151Z,102461.05
2019-02-21T18:52:42.451Z,102461.91
2019-02-21T18:55:11.840Z,102506.89
2019-02-21T18:57:41.185Z,102524.81
2019-02-21T19:00:12.224Z,102533.09
2019-02-21T19:02:41.536Z,102524.29
2019-02-21T19:05:10.863Z,102519.17
2019-02-21T19:07:40.163Z,102547.20
2019-02-21T19:10:11.258Z,102510.42
2019-02-21T19:12:40.538Z,102518.63
2019-02-21T19:15:09.975Z,102521.47
2019-02-21T19:17:39.266Z,102537.13
2019-02-21T19:20:09.923Z,102559.16
2019-02-21T19:22:39.271Z,102557.64
2019-02-21T19:25:09.408Z,102569.36
2019-02-21T19:27:38.773Z,102574.47
2019-02-21T19:30:11.748Z,102577.98
2019-02-21T19:32:41.065Z,102591.98
2019-02-21T19:35:10.447Z,102587.91
2019-02-21T19:37:39.870Z,102590.31
2019-02-21T19:40:09.487Z,102616.84
2019-02-21T19:42:38.838Z,102602.38
2019-02-21T19:45:08.502Z,102604.58
2019-02-21T19:47:37.773Z,102607.61
2019-02-21T19:50:07.395Z,102610.85
2019-02-21T19:52:36.833Z,102623.64
2019-02-21T19:55:06.282Z,102630.23
2019-02-21T19:57:35.561Z,102627.88
2019-02-21T20:00:05.012Z,102631.12
2019-02-21T20:02:34.395Z,102649.83
2019-02-21T20:05:03.675Z,102654.01
2019-02-21T20:07:33.046Z,102672.70
2019-02-21T20:10:02.458Z,102680.18
2019-02-21T20:12:31.773Z,102680.66
2019-02-21T20:15:01.015Z,102691.14
2019-02-21T20:17:30.339Z,102697.42
2019-02-21T20:19:59.615Z,102705.61
2019-02-21T20:22:28.991Z,102697.94
2019-02-21T20:24:58.376Z,102707.13
2019-02-21T20:27:27.659Z,102710.81
2019-02-21T20:29:56.905Z,102720.01
2019-02-21T20:32:26.278Z,102739.99
2019-02-21T20:34:55.729Z,102745.85
2019-02-21T20:37:25.050Z,102747.75
2019-02-21T20:39:55.161Z,102756.07
2019-02-21T20:42:24.655Z,102771.36
2019-02-21T20:44:54.086Z,102785.45
2019-02-21T20:47:23.503Z,102791.23
2019-02-21T20:49:52.795Z,102810.23
2019-02-21T20:52:22.273Z,102801.42
2019-02-21T20:54:51.593Z,102810.61
2019-02-21T20:57:20.971Z,102821.30
2019-02-21T20:59:50.408Z,102834.38
2019-02-21T21:02:19.740Z,102831.00
2019-02-21T21:04:49.001Z,102848.64
2019-02-21T21:07:25.016Z,102864.15
2019-02-21T21:09:49.380Z,102883.03
2019-02-21T21:12:18.705Z,102898.45
2019-02-21T21:14:47.991Z,102875.73
2019-02-21T21:17:17.303Z,102879.45
2019-02-21T21:19:46.574Z,102884.05
2019-02-21T21:22:16.016Z,102906.60
2019-02-21T21:24:45.364Z,102912.91
2019-02-21T21:27:14.661Z,102929.53
2019-02-21T21:29:44.007Z,102924.77
2019-02-21T21:32:13.365Z,102951.23
2019-02-21T21:34:42.857Z,102944.45
2019-02-21T21:37:12.228Z,102970.55
2019-02-21T21:39:41.527Z,102959.89
2019-02-21T21:42:10.826Z,102982.44
2019-02-21T21:44:40.323Z,103000.08
2019-02-21T21:47:09.626Z,103002.08
2019-02-21T21:49:38.975Z,103000.91
2019-02-21T21:52:08.282Z,103010.55
2019-02-21T21:54:38.074Z,103023.13
2019-02-21T21:57:07.367Z,103018.34
2019-02-21T21:59:36.713Z,103037.19
2019-02-21T22:02:06.152Z,103042.61
2019-02-21T22:04:35.457Z,103046.83
2019-02-21T22:07:04.894Z,103036.48
2019-02-21T22:09:34.243Z,103052.09
2019-02-21T22:12:03.638Z,103057.34
2019-02-21T22:14:32.936Z,103061.41
2019-02-21T22:17:02.319Z,103076.33
2019-02-21T22:19:31.644Z,103086.16
2019-02-21T22:22:00.946Z,103103.63
2019-02-21T22:24:30.350Z,103111.09
2019-02-21T22:26:59.671Z,103107.34
2019-02-21T22:29:28.948Z,103114.64
2019-02-21T22:31:58.396Z,103110.04
2019-02-21T22:34:27.774Z,103152.11
2019-02-21T22:36:57.089Z,103126.02
2019-02-21T22:39:26.427Z,103130.42
2019-02-21T22:41:55.740Z,103137.56
2019-02-21T22:44:25.043Z,103153.66
2019-02-21T22:46:54.393Z,103166.35
2019-02-21T22:49:23.683Z,103135.16
2019-02-21T22:51:53.170Z,103164.31
2019-02-21T22:54:22.450Z,103175.98
2019-02-21T22:56:51.852Z,103174.31
2019-02-21T22:59:21.123Z,103182.31
2019-02-21T23:01:50.630Z,103194.69
2019-02-21T23:04:26.069Z,103236.59
2019-02-21T23:07:17.517Z,103210.49
2019-02-21T23:09:46.917Z,103220.50
2019-02-21T23:12:16.188Z,103228.30
2019-02-21T23:14:45.513Z,103231.69
2019-02-21T23:17:14.908Z,103231.38
2019-02-21T23:19:44.239Z,103247.14
2019-02-21T23:22:13.545Z,103228.34
2019-02-21T23:24:42.853Z,103247.00
2019-02-21T23:27:12.164Z,103241.89
2019-02-21T23:29:41.458Z,103268.83
2019-02-21T23:32:10.843Z,103264.11
2019-02-21T23:34:42.884Z,103284.13
2019-02-21T23:37:12.237Z,103283.92
2019-02-21T23:39:41.528Z,103294.16
2019-02-21T23:42:10.830Z,103290.56
2019-02-21T23:44:40.095Z,103302.95
2019-02-21T23:47:09.397Z,103298.22
2019-02-21T23:49:38.755Z,103313.59
2019-02-21T23:52:08.058Z,103309.70
2019-02-21T23:54:37.333Z,103333.28
2019-02-21T23:57:06.675Z,103339.55
2019-02-21T23:59:36.031Z,103353.11
